Time;durP1;ratioP1;P1;durP2;ratioP2;P2;SDS_P1;SDS_P2;PMS_P1;PMS_P2;Temp;Humidity;BMP_temperature;BMP_pressure;BME280_temperature;BME280_humidity;BME280_pressure;Samples;Min_cycle;Max_cycle;Signal;HPM_P1;HPM_P2
2022/09/26 00:01:21;;;;;;;1.65;0.80;;;;;;;23.62;50.86;96315.38;5015700;28;20026;-34
2022/09/26 00:03:51;;;;;;;1.88;1.33;;;;;;;23.61;50.91;96300.06;5015451;28;20030;-33
2022/09/26 00:06:17;;;;;;;1.65;0.90;;;;;;;23.67;50.82;96284.16;5015456;28;20022;-33
2022/09/26 00:08:43;;;;;;;2.13;0.80;;;;;;;23.66;50.85;96282.66;5015377;28;20026;-33
2022/09/26 00:11:11;;;;;;;1.83;1.02;;;;;;;23.62;51.01;96301.53;5015421;28;20026;-34
2022/09/26 00:13:39;;;;;;;1.92;1.10;;;;;;;23.60;50.95;96304.09;5015318;28;20621;-33
2022/09/26 00:16:05;;;;;;;2.08;0.98;;;;;;;23.60;51.43;96318.69;5015403;28;20375;-33
2022/09/26 00:18:31;;;;;;;1.38;0.90;;;;;;;23.46;51.45;96316.25;5015415;28;20036;-33
2022/09/26 00:21:04;;;;;;;2.38;0.82;;;;;;;23.50;51.27;96311.19;5014841;28;20061;-33
2022/09/26 00:23:30;;;;;;;1.75;0.90;;;;;;;23.55;51.12;96321.50;5015130;28;20033;-33
2022/09/26 00:25:57;;;;;;;2.13;1.10;;;;;;;23.58;51.29;96326.00;5015185;28;20053;-34
2022/09/26 00:28:24;;;;;;;1.77;1.30;;;;;;;23.51;51.12;96332.09;5015042;28;20026;-33
2022/09/26 00:30:50;;;;;;;0.95;0.82;;;;;;;23.52;51.45;96330.81;5014891;28;20121;-33
2022/09/26 00:33:15;;;;;;;1.33;0.88;;;;;;;23.55;51.17;96327.03;5014710;28;20089;-34
2022/09/26 00:35:48;;;;;;;1.25;0.85;;;;;;;23.60;51.25;96323.47;5014806;28;20474;-33
2022/09/26 00:38:13;;;;;;;1.77;0.85;;;;;;;23.62;51.21;96315.38;5014729;28;20103;-33
2022/09/26 00:40:39;;;;;;;1.83;0.98;;;;;;;23.56;51.06;96306.41;5014971;28;20042;-33
2022/09/26 00:43:25;;;;;;;1.48;0.70;;;;;;;23.54;51.02;96304.13;5014542;28;20080;-33
2022/09/26 00:45:51;;;;;;;2.15;0.93;;;;;;;23.57;51.07;96283.72;5014923;28;20080;-33
2022/09/26 00:48:18;;;;;;;1.77;0.75;;;;;;;23.60;51.21;96284.72;5014593;28;20017;-33
2022/09/26 00:50:43;;;;;;;2.92;0.90;;;;;;;23.60;51.42;96291.00;5014760;28;20034;-33
2022/09/26 00:53:15;;;;;;;1.10;0.57;;;;;;;23.50;51.79;96313.94;5014515;28;20040;-33
2022/09/26 00:55:46;;;;;;;1.57;0.63;;;;;;;23.59;50.95;96305.38;5014650;28;20022;-33
2022/09/26 00:58:19;;;;;;;0.80;0.60;;;;;;;23.45;51.65;96307.22;5014420;28;20278;-33
2022/09/26 01:00:46;;;;;;;1.00;0.52;;;;;;;23.43;51.58;96300.69;5013253;28;20378;-34
2022/09/26 01:03:15;;;;;;;1.00;0.60;;;;;;;23.47;51.35;96296.38;5014399;28;20088;-34
2022/09/26 01:05:41;;;;;;;1.17;0.60;;;;;;;23.52;51.28;96278.97;5014643;28;20030;-34
2022/09/26 01:08:08;;;;;;;0.70;0.70;;;;;;;23.42;51.66;96280.56;5014514;28;20470;-33
2022/09/26 01:10:35;;;;;;;4.53;0.75;;;;;;;23.49;51.69;96276.50;5014217;28;20101;-34
2022/09/26 01:13:01;;;;;;;0.60;0.60;;;;;;;23.47;51.53;96267.94;5014417;28;20025;-33
2022/09/26 01:15:27;;;;;;;2.38;0.98;;;;;;;23.52;51.30;96264.38;5014131;28;20033;-35
2022/09/26 01:17:54;;;;;;;3.65;0.70;;;;;;;23.48;51.88;96261.16;5014340;28;20032;-35
2022/09/26 01:20:45;;;;;;;1.52;0.88;;;;;;;23.39;51.47;96272.53;5014139;28;20048;-33
2022/09/26 01:23:36;;;;;;;0.90;0.75;;;;;;;23.45;51.67;96273.25;5014010;28;20390;-34
2022/09/26 01:26:40;;;;;;;1.33;0.93;;;;;;;23.51;51.33;96252.56;5014128;28;20080;-33
2022/09/26 01:29:39;;;;;;;1.02;0.70;;;;;;;23.50;51.69;96272.44;5014206;28;20037;-33
2022/09/26 01:32:47;;;;;;;1.85;0.85;;;;;;;23.51;51.11;96271.19;5013433;28;20489;-33
2022/09/26 01:35:42;;;;;;;3.17;1.02;;;;;;;23.44;51.85;96266.19;5013854;28;20057;-33
2022/09/26 01:38:23;;;;;;;1.52;0.90;;;;;;;23.47;51.63;96248.56;5013596;28;20053;-34
2022/09/26 01:40:57;;;;;;;1.10;0.93;;;;;;;23.45;51.65;96256.63;5014019;28;20045;-33
2022/09/26 01:43:33;;;;;;;1.52;1.00;;;;;;;23.44;51.63;96255.13;5013856;28;20026;-33
2022/09/26 01:46:19;;;;;;;1.50;0.90;;;;;;;23.47;51.31;96265.19;5013711;28;20072;-33
2022/09/26 01:49:02;;;;;;;1.65;1.00;;;;;;;23.45;51.61;96267.72;5013745;28;20490;-33
2022/09/26 01:51:32;;;;;;;;;;;;;;;23.45;51.59;96262.16;5014150;28;20029;-33
2022/09/26 01:54:11;;;;;;;1.33;1.00;;;;;;;23.48;51.28;96252.84;5013805;28;19909;-34
2022/09/26 01:56:39;;;;;;;2.20;1.10;;;;;;;23.47;51.70;96243.03;5013862;28;20028;-33
2022/09/26 01:59:15;;;;;;;0.88;0.82;;;;;;;23.44;51.77;96238.53;5013457;28;20037;-33
2022/09/26 02:01:44;;;;;;;2.22;1.30;;;;;;;23.44;51.65;96238.53;5013716;28;20053;-34
2022/09/26 02:04:13;;;;;;;1.70;1.00;;;;;;;23.48;51.38;96241.78;5013505;28;20422;-33
2022/09/26 02:07:07;;;;;;;1.73;1.15;;;;;;;23.47;51.41;96251.34;5013480;28;20116;-35
2022/09/26 02:09:42;;;;;;;1.30;1.00;;;;;;;23.51;51.43;96243.50;5013432;28;20426;-34
2022/09/26 02:12:13;;;;;;;2.20;1.23;;;;;;;23.42;51.53;96235.53;5013644;28;20430;-33
2022/09/26 02:14:40;;;;;;;1.20;1.00;;;;;;;23.43;51.54;96228.72;5013377;28;20033;-33
2022/09/26 02:17:13;;;;;;;2.25;1.25;;;;;;;23.42;51.53;96229.97;5013492;28;20022;-33
2022/09/26 02:19:49;;;;;;;;;;;;;;;23.38;51.82;96235.03;5014120;28;20025;-34
2022/09/26 02:22:14;;;;;;;1.70;1.05;;;;;;;23.46;51.42;96230.47;5013494;28;20004;-33
2022/09/26 02:24:40;;;;;;;2.42;1.20;;;;;;;23.40;51.58;96222.19;5012257;28;20106;-34
2022/09/26 02:27:06;;;;;;;1.20;0.90;;;;;;;23.47;51.41;96218.13;5013539;28;20493;-33
2022/09/26 02:29:32;;;;;;;1.65;1.30;;;;;;;23.49;51.12;96219.09;5013360;28;20060;-33
2022/09/26 02:32:14;;;;;;;1.40;0.98;;;;;;;23.54;51.09;96210.03;5013350;28;20022;-33
2022/09/26 02:34:42;;;;;;;1.38;1.00;;;;;;;23.47;51.27;96216.13;5013397;28;20385;-34
2022/09/26 02:37:09;;;;;;;1.40;1.00;;;;;;;23.44;51.67;96199.78;5013053;28;20060;-33
2022/09/26 02:39:35;;;;;;;1.17;0.88;;;;;;;23.49;51.42;96196.22;5013186;28;20029;-33
2022/09/26 02:42:10;;;;;;;1.98;1.00;;;;;;;23.45;51.21;96206.81;5013156;28;20022;-34
2022/09/26 02:44:47;;;;;;;1.50;1.00;;;;;;;23.47;51.25;96215.34;5016806;28;20030;-33
2022/09/26 02:47:53;;;;;;;1.40;1.00;;;;;;;23.50;51.00;96212.31;5017297;28;20029;-34
2022/09/26 02:50:59;;;;;;;1.55;1.15;;;;;;;23.50;51.27;96206.00;5019262;28;20453;-33
2022/09/26 02:53:46;;;;;;;1.73;1.10;;;;;;;23.52;51.00;96203.50;5016972;28;20101;-33
2022/09/26 02:56:32;;;;;;;0.82;0.82;;;;;;;23.48;51.24;96194.72;5016766;28;20022;-33
2022/09/26 02:59:05;;;;;;;1.20;1.00;;;;;;;23.52;50.97;96195.19;5016856;28;20026;-33
2022/09/26 03:01:49;;;;;;;1.23;1.00;;;;;;;23.51;51.14;96182.63;5016589;28;20033;-33
2022/09/26 03:04:57;;;;;;;1.15;0.90;;;;;;;23.49;51.20;96180.34;5016651;28;20039;-33
2022/09/26 03:07:34;;;;;;;2.63;1.00;;;;;;;23.42;51.34;96188.47;5034230;28;20042;-33
2022/09/26 03:10:04;;;;;;;2.25;0.80;;;;;;;23.48;51.07;96189.19;5034219;28;20083;-33
2022/09/26 03:12:32;;;;;;;1.30;1.00;;;;;;;23.49;51.07;96179.63;5034050;28;20033;-33
2022/09/26 03:15:01;;;;;;;1.92;1.33;;;;;;;23.48;50.89;96181.63;5034096;28;20056;-33
2022/09/26 03:17:27;;;;;;;1.20;1.00;;;;;;;23.51;50.84;96175.06;5034038;28;20128;-33
2022/09/26 03:20:03;;;;;;;1.42;1.02;;;;;;;23.48;51.05;96183.66;5034088;28;20035;-33
2022/09/26 03:22:29;;;;;;;1.30;0.80;;;;;;;23.43;50.94;96189.97;5034070;28;20038;-34
2022/09/26 03:24:58;;;;;;;2.00;1.00;;;;;;;23.52;50.80;96184.13;5033664;28;20587;-33
2022/09/26 03:27:24;;;;;;;1.40;1.00;;;;;;;23.48;50.95;96184.41;5033944;28;20437;-34
2022/09/26 03:29:50;;;;;;;1.33;0.95;;;;;;;23.54;50.37;96176.06;5033858;28;20037;-33
2022/09/26 03:32:15;;;;;;;1.33;0.77;;;;;;;23.33;51.25;96172.22;5033810;28;20496;-33
2022/09/26 03:34:41;;;;;;;1.67;0.93;;;;;;;23.44;50.79;96161.78;5033694;28;20030;-33
2022/09/26 03:37:07;;;;;;;1.70;1.10;;;;;;;23.44;50.62;96152.72;5033468;28;20045;-33
2022/09/26 03:39:32;;;;;;;1.75;1.13;;;;;;;23.46;50.57;96166.81;5033999;28;20029;-33
2022/09/26 03:41:58;;;;;;;1.35;0.90;;;;;;;23.48;50.50;96158.75;5030791;28;20394;-33
2022/09/26 03:44:24;;;;;;;1.55;1.00;;;;;;;23.45;50.55;96148.69;5014475;28;20080;-33
2022/09/26 03:46:50;;;;;;;1.25;0.98;;;;;;;23.50;50.59;96153.41;5015719;28;20021;-34
2022/09/26 03:49:16;;;;;;;1.60;0.95;;;;;;;23.44;50.82;96152.72;5015716;28;20025;-33
2022/09/26 03:51:43;;;;;;;1.30;1.05;;;;;;;23.49;50.49;96138.81;5015639;28;20099;-33
2022/09/26 03:54:11;;;;;;;1.45;0.98;;;;;;;23.50;50.71;96132.06;5015442;28;20352;-33
2022/09/26 03:56:36;;;;;;;1.55;0.90;;;;;;;23.53;50.50;96135.81;5015520;28;20363;-33
2022/09/26 03:59:02;;;;;;;1.80;1.08;;;;;;;23.50;50.71;96115.44;5015537;28;20076;-33
2022/09/26 04:01:27;;;;;;;1.20;0.82;;;;;;;23.44;50.73;96119.53;5015527;28;20080;-33
2022/09/26 04:03:53;;;;;;;1.15;0.80;;;;;;;23.47;50.63;96121.25;5015802;28;20394;-34
2022/09/26 04:06:19;;;;;;;1.27;0.90;;;;;;;23.50;50.62;96117.44;5015386;28;20080;-33
2022/09/26 04:08:47;;;;;;;1.40;0.95;;;;;;;23.47;50.74;96112.97;5015464;28;20112;-33
2022/09/26 04:11:15;;;;;;;0.80;0.70;;;;;;;23.43;50.91;96106.94;5015405;28;20394;-33
2022/09/26 04:13:44;;;;;;;1.10;0.93;;;;;;;23.42;50.61;96105.44;5014029;28;20017;-33
2022/09/26 04:16:10;;;;;;;2.95;1.20;;;;;;;23.46;50.60;96100.38;5015349;28;20543;-35
2022/09/26 04:18:36;;;;;;;2.80;1.35;;;;;;;23.52;50.38;96117.69;5015176;28;20037;-34
2022/09/26 04:21:09;;;;;;;1.17;0.90;;;;;;;23.49;50.75;96113.91;5015171;28;20489;-34
2022/09/26 04:23:38;;;;;;;1.17;0.73;;;;;;;23.44;50.92;96111.22;5013710;28;20589;-33
2022/09/26 04:26:12;;;;;;;1.58;0.90;;;;;;;23.44;50.74;96116.75;5015242;28;20033;-33
2022/09/26 04:28:39;;;;;;;1.30;0.70;;;;;;;23.38;50.78;96110.53;5015289;28;20031;-34
2022/09/26 04:31:06;;;;;;;0.88;0.77;;;;;;;23.44;50.70;96111.97;5015268;28;20033;-33
2022/09/26 04:33:32;;;;;;;2.28;0.98;;;;;;;23.44;50.42;96102.91;5014818;28;20056;-33
2022/09/26 04:36:00;;;;;;;1.45;0.80;;;;;;;23.40;51.07;96108.00;5015035;28;20029;-33
2022/09/26 04:38:31;;;;;;;1.58;0.90;;;;;;;23.45;50.97;96104.41;5014818;28;20053;-33
2022/09/26 04:41:02;;;;;;;1.75;1.10;;;;;;;23.34;51.29;96104.53;5014811;28;20049;-33
2022/09/26 04:43:28;;;;;;;2.78;0.95;;;;;;;23.47;50.51;96104.66;5014732;28;20029;-33
2022/09/26 04:45:53;;;;;;;2.90;1.35;;;;;;;23.45;50.63;96107.94;5014824;28;20026;-33
2022/09/26 04:48:20;;;;;;;1.60;0.98;;;;;;;23.38;50.96;96107.75;5014617;28;20076;-33
2022/09/26 04:50:45;;;;;;;1.33;0.80;;;;;;;23.43;50.98;96110.47;5013657;28;20443;-34
2022/09/26 04:53:11;;;;;;;2.65;0.90;;;;;;;23.42;50.65;96117.28;5014686;28;20100;-33
2022/09/26 04:55:36;;;;;;;1.15;0.88;;;;;;;23.42;51.08;96124.81;5014582;28;20021;-33
2022/09/26 04:58:02;;;;;;;1.27;1.00;;;;;;;23.48;50.52;96117.22;5014345;28;20068;-33
2022/09/26 05:00:27;;;;;;;1.55;0.80;;;;;;;23.44;50.71;96105.69;5014541;28;20026;-33
2022/09/26 05:02:54;;;;;;;1.30;0.85;;;;;;;23.41;50.82;96115.03;5014619;28;20488;-33
2022/09/26 05:05:20;;;;;;;1.20;1.10;;;;;;;23.44;50.70;96116.75;5014386;28;20057;-34
2022/09/26 05:07:45;;;;;;;1.25;0.88;;;;;;;23.46;50.72;96114.22;5013375;28;20032;-35
2022/09/26 05:10:11;;;;;;;0.80;0.73;;;;;;;23.41;50.93;96120.56;5014235;28;20064;-33
2022/09/26 05:12:38;;;;;;;1.02;0.77;;;;;;;23.45;50.43;96110.72;5014330;28;20026;-33
2022/09/26 05:15:08;;;;;;;1.50;1.00;;;;;;;23.41;50.78;96115.78;5014178;28;20026;-33
2022/09/26 05:17:36;;;;;;;1.73;0.90;;;;;;;23.38;50.68;96113.28;5014397;28;20033;-33
2022/09/26 05:20:07;;;;;;;1.58;0.88;;;;;;;23.43;50.75;96120.78;5014136;28;20058;-33
2022/09/26 05:22:33;;;;;;;2.03;0.90;;;;;;;23.37;50.65;96120.13;5014090;28;20022;-33
2022/09/26 05:27:42;;;;;;;1.23;0.82;;;;;;;23.43;51.00;96126.31;5014096;28;20429;-33
2022/09/26 05:30:08;;;;;;;1.13;0.98;;;;;;;23.42;50.87;96127.59;5013955;28;20022;-34
2022/09/26 05:32:34;;;;;;;0.80;0.70;;;;;;;23.49;50.35;96132.56;5013951;28;20045;-34
2022/09/26 05:34:59;;;;;;;1.75;0.90;;;;;;;23.45;50.67;96145.94;5012610;28;20018;-33
2022/09/26 05:37:24;;;;;;;1.27;0.90;;;;;;;23.48;50.57;96142.88;5013556;28;20053;-34
2022/09/26 05:42:34;;;;;;;1.10;0.80;;;;;;;23.44;50.54;96141.66;5014149;28;20121;-33
2022/09/26 05:45:02;;;;;;;1.45;0.90;;;;;;;23.44;50.46;96138.91;5013846;28;20022;-33
2022/09/26 05:47:30;;;;;;;0.88;0.70;;;;;;;23.43;50.36;96140.91;5013914;28;20049;-33
2022/09/26 05:49:56;;;;;;;1.63;0.88;;;;;;;23.45;50.68;96140.41;5013453;28;20496;-33
2022/09/26 05:52:21;;;;;;;0.90;0.80;;;;;;;23.39;50.44;96136.94;5013579;28;20087;-33
2022/09/26 05:54:47;;;;;;;1.20;0.90;;;;;;;23.36;50.42;96144.28;5013718;28;20363;-33
2022/09/26 05:57:12;;;;;;;1.10;1.00;;;;;;;23.44;50.62;96142.41;5013634;28;20026;-33
2022/09/26 05:59:38;;;;;;;1.27;0.95;;;;;;;23.46;50.45;96153.72;5013767;28;20026;-33
2022/09/26 06:02:05;;;;;;;1.38;1.10;;;;;;;23.44;50.37;96145.19;5013832;28;20017;-33
2022/09/26 06:04:31;;;;;;;1.77;1.05;;;;;;;23.46;50.50;96148.19;5012117;28;20033;-33
2022/09/26 06:06:57;;;;;;;1.55;1.10;;;;;;;23.42;50.63;96139.41;5013767;28;20026;-33
2022/09/26 06:09:22;;;;;;;1.58;0.90;;;;;;;23.41;50.52;96137.91;5013579;28;20029;-33
2022/09/26 06:11:48;;;;;;;1.20;0.93;;;;;;;23.42;50.41;96135.91;5013404;28;20474;-33
2022/09/26 06:14:13;;;;;;;1.63;1.02;;;;;;;23.43;50.45;96137.41;5015464;28;20064;-35
2022/09/26 06:16:39;;;;;;;2.97;1.10;;;;;;;23.45;50.50;96140.41;5031332;28;20108;-33
2022/09/26 06:19:04;;;;;;;2.30;0.90;;;;;;;23.37;50.91;96140.22;5034097;28;20029;-33
2022/09/26 06:21:30;;;;;;;0.98;0.80;;;;;;;23.33;50.99;96134.22;5035336;28;20059;-34
2022/09/26 06:23:55;;;;;;;0.93;0.75;;;;;;;23.41;50.73;96128.84;5035263;28;20031;-33
2022/09/26 06:26:23;;;;;;;1.15;0.88;;;;;;;23.35;50.54;96114.34;5033415;28;20086;-33
2022/09/26 06:28:56;;;;;;;1.58;1.08;;;;;;;23.42;50.54;96119.28;5035117;28;20469;-34
2022/09/26 06:31:22;;;;;;;1.00;0.88;;;;;;;23.38;50.56;96119.56;5035096;28;20026;-33
2022/09/26 06:33:51;;;;;;;1.50;0.98;;;;;;;23.38;51.11;96118.81;5035008;28;20422;-33
2022/09/26 06:36:16;;;;;;;1.40;0.90;;;;;;;23.33;50.84;96137.00;5034699;28;20405;-33
2022/09/26 06:38:42;;;;;;;1.17;0.90;;;;;;;23.37;50.75;96123.59;5034895;28;20027;-34
2022/09/26 06:41:07;;;;;;;1.42;0.93;;;;;;;23.41;50.29;96106.72;5035050;28;20036;-33
2022/09/26 06:43:33;;;;;;;0.77;0.63;;;;;;;23.41;50.64;96110.25;5034795;28;20033;-33
2022/09/26 06:45:59;;;;;;;2.53;0.82;;;;;;;23.40;50.86;96105.97;5034771;28;20021;-33
2022/09/26 06:48:24;;;;;;;0.80;0.80;;;;;;;23.41;50.96;96112.25;5034791;28;20025;-33
2022/09/26 06:50:55;;;;;;;1.98;0.90;;;;;;;23.40;50.57;96108.00;5034600;28;20053;-33
2022/09/26 06:53:21;;;;;;;0.70;0.70;;;;;;;23.38;50.83;96102.97;5034532;28;20021;-33
2022/09/26 06:55:47;;;;;;;2.45;0.80;;;;;;;23.38;50.80;96111.28;5034732;28;20036;-34
2022/09/26 06:58:13;;;;;;;0.90;0.75;;;;;;;23.35;50.78;96109.56;5034570;28;20116;-33
2022/09/26 07:00:38;;;;;;;1.38;0.65;;;;;;;23.35;51.16;96114.34;5032644;28;20029;-33
2022/09/26 07:03:04;;;;;;;0.82;0.77;;;;;;;23.34;51.34;96110.06;5033903;28;20021;-33
2022/09/26 07:05:30;;;;;;;1.23;0.93;;;;;;;23.35;51.26;96109.56;5034640;28;20478;-33
2022/09/26 07:07:57;;;;;;;1.73;0.93;;;;;;;23.37;50.88;96114.56;5034259;28;20028;-33
2022/09/26 07:10:23;;;;;;;0.80;0.70;;;;;;;23.43;51.04;96120.78;5034411;28;20030;-33
2022/09/26 07:12:49;;;;;;;0.95;0.80;;;;;;;23.34;51.22;96110.81;5034451;28;20025;-33
2022/09/26 07:15:17;;;;;;;1.67;0.98;;;;;;;23.37;51.11;96133.94;5033922;28;20029;-33
2022/09/26 07:17:43;;;;;;;1.20;0.90;;;;;;;23.32;51.28;96126.44;5034138;28;20040;-33
2022/09/26 07:20:18;;;;;;;0.93;0.73;;;;;;;23.34;51.42;96134.97;5034187;28;20738;-33
2022/09/26 07:22:43;;;;;;;1.00;0.80;;;;;;;23.32;51.60;96135.50;5034236;28;20022;-33
2022/09/26 07:25:10;;;;;;;1.52;1.00;;;;;;;22.60;54.32;96136.81;5033523;28;20026;-32
2022/09/26 07:27:36;;;;;;;3.13;2.03;;;;;;;22.40;57.27;96139.97;5033818;28;20131;-33
2022/09/26 07:30:03;;;;;;;3.45;1.90;;;;;;;22.33;57.89;96138.50;5032869;28;20025;-33
2022/09/26 07:32:32;;;;;;;3.65;2.60;;;;;;;22.29;58.14;96140.03;5030391;28;20026;-32
2022/09/26 07:34:58;;;;;;;2.67;2.10;;;;;;;21.97;59.65;96132.13;5015862;28;20017;-32
2022/09/26 07:37:24;;;;;;;4.80;2.20;;;;;;;21.48;60.60;96133.81;5015661;28;20372;-32
2022/09/26 07:39:49;;;;;;;2.75;2.00;;;;;;;21.97;59.13;96136.91;5015150;28;20040;-34
2022/09/26 07:42:16;;;;;;;3.03;1.60;;;;;;;22.40;57.76;96137.19;5020716;28;20034;-34
2022/09/26 07:44:43;;;;;;;6.75;1.98;;;;;;;22.62;56.80;96141.84;5015850;28;20109;-34
2022/09/26 07:50:11;;;;;;;1.80;1.30;;;;;;;22.74;56.01;96126.69;5015703;28;20072;-34
2022/09/26 07:52:41;;;;;;;1.77;1.17;;;;;;;22.79;55.87;96126.66;5015745;28;20021;-34
2022/09/26 07:55:09;;;;;;;1.58;1.48;;;;;;;22.82;55.77;96130.41;5015854;28;20053;-34
2022/09/26 07:57:34;;;;;;;2.83;1.40;;;;;;;22.94;54.88;96137.34;5015775;28;20037;-34
2022/09/26 08:00:20;;;;;;;2.05;1.00;;;;;;;23.01;54.81;96139.53;5015488;28;20030;-34
2022/09/26 08:02:46;;;;;;;1.35;1.10;;;;;;;23.01;54.65;96142.31;5015428;28;20045;-34
2022/09/26 08:05:18;;;;;;;2.63;1.40;;;;;;;23.07;54.26;96139.50;5015463;28;20030;-34
2022/09/26 08:07:45;;;;;;;2.13;1.58;;;;;;;23.08;54.29;96146.53;5015573;28;20025;-34
2022/09/26 08:10:20;;;;;;;1.83;1.15;;;;;;;23.17;53.92;96138.66;5015396;28;20552;-34
2022/09/26 08:12:47;;;;;;;2.33;1.20;;;;;;;23.14;54.16;96145.22;5015745;28;20121;-34
2022/09/26 08:15:13;;;;;;;6.15;1.38;;;;;;;23.03;54.48;96150.84;5015219;28;20029;-34
2022/09/26 08:17:39;;;;;;;1.42;1.20;;;;;;;23.10;54.07;96144.75;5015468;28;20033;-34
2022/09/26 08:20:06;;;;;;;1.60;1.08;;;;;;;23.17;53.92;96149.72;5015409;28;20390;-34
2022/09/26 08:22:32;;;;;;;1.42;1.20;;;;;;;23.23;53.66;96152.44;5015149;28;20030;-34
2022/09/26 08:24:59;;;;;;;2.55;1.20;;;;;;;23.23;53.28;96150.44;5014983;28;20034;-34
2022/09/26 08:27:24;;;;;;;2.35;1.15;;;;;;;23.20;53.63;96147.94;5015192;28;20121;-34
2022/09/26 08:29:50;;;;;;;1.75;1.20;;;;;;;23.14;53.91;96147.97;5015028;28;20489;-34
2022/09/26 08:32:18;;;;;;;2.88;1.05;;;;;;;23.15;53.72;96141.19;5015031;28;20025;-34
2022/09/26 08:34:44;;;;;;;1.50;1.00;;;;;;;23.22;53.85;96142.63;5014780;28;20452;-34
2022/09/26 08:37:10;;;;;;;2.05;1.40;;;;;;;23.27;53.37;96141.81;5015032;28;20056;-34
2022/09/26 08:39:35;;;;;;;1.92;1.10;;;;;;;23.12;54.26;96144.25;5014881;28;20030;-34
2022/09/26 08:42:30;;;;;;;1.80;1.15;;;;;;;23.22;53.85;96137.84;5014951;28;20527;-34
2022/09/26 08:46:28;;;;;;;1.40;1.23;;;;;;;23.15;53.99;96138.41;5014705;28;20114;-34
2022/09/26 08:48:13;;;;;;;1.45;1.20;;;;;;;23.11;54.24;96143.50;5014896;28;20413;-34
2022/09/26 08:50:49;;;;;;;2.50;1.25;;;;;;;23.12;53.99;96135.94;5014834;28;20060;-34
2022/09/26 08:53:32;;;;;;;1.83;1.40;;;;;;;23.16;54.06;96137.16;5014664;28;20037;-34
2022/09/26 08:56:00;;;;;;;2.13;1.40;;;;;;;23.19;53.96;96149.19;5014696;28;20104;-34
2022/09/26 08:58:38;;;;;;;1.98;1.63;;;;;;;23.21;53.85;96144.66;5014462;28;20036;-34
2022/09/26 09:01:12;;;;;;;3.05;1.70;;;;;;;23.16;54.17;96147.47;5014581;28;20537;-35
2022/09/26 09:04:02;;;;;;;4.20;1.80;;;;;;;23.19;54.01;96140.91;5014314;28;20422;-34
2022/09/26 09:06:28;;;;;;;2.20;1.50;;;;;;;23.24;53.60;96140.84;5014447;28;20422;-34
2022/09/26 09:08:55;;;;;;;2.25;1.50;;;;;;;23.18;54.03;96140.16;5014401;28;20033;-34
2022/09/26 09:11:35;;;;;;;2.67;1.42;;;;;;;23.22;53.57;96135.09;5014904;28;20033;-35
2022/09/26 09:14:09;;;;;;;3.35;1.55;;;;;;;23.14;54.08;96128.59;5014369;28;20034;-34
2022/09/26 09:16:56;;;;;;;2.92;1.52;;;;;;;23.21;54.16;96130.81;5014188;28;20124;-34
2022/09/26 09:19:47;;;;;;;2.42;1.80;;;;;;;23.21;54.53;96122.53;5014302;28;20017;-34
2022/09/26 09:22:29;;;;;;;3.60;1.70;;;;;;;23.22;54.06;96129.56;5014179;28;20026;-34
2022/09/26 09:24:57;;;;;;;2.70;1.63;;;;;;;23.11;53.95;96134.44;5013787;28;20113;-34
2022/09/26 09:27:53;;;;;;;2.13;1.60;;;;;;;23.04;54.67;96130.22;5014056;28;20037;-34
2022/09/26 09:30:23;;;;;;;3.22;1.90;;;;;;;23.24;53.99;96135.28;5014078;28;20390;-34
2022/09/26 09:32:59;;;;;;;4.00;1.90;;;;;;;23.15;54.48;96124.56;5026626;28;20021;-34
2022/09/26 09:35:42;;;;;;;2.47;1.77;;;;;;;23.22;54.39;96129.56;5032397;28;20014;-34
2022/09/26 09:38:16;;;;;;;2.65;1.80;;;;;;;23.20;54.88;96123.78;5033434;28;20049;-34
2022/09/26 09:40:49;;;;;;;3.08;1.70;;;;;;;23.09;55.01;96123.91;5033823;28;20057;-34
2022/09/26 09:43:25;;;;;;;2.55;2.00;;;;;;;23.22;54.56;96129.56;5033602;28;20108;-34
2022/09/26 09:45:56;;;;;;;3.53;1.92;;;;;;;23.13;54.63;96127.09;5032399;28;20116;-34
2022/09/26 09:48:25;;;;;;;3.95;2.85;;;;;;;23.14;55.12;96127.84;5033681;28;20033;-34
2022/09/26 09:51:09;;;;;;;3.92;3.08;;;;;;;23.17;54.66;96122.06;5033381;28;20474;-34
2022/09/26 09:53:59;;;;;;;5.90;3.17;;;;;;;23.17;55.04;96121.31;5033109;28;20064;-34
2022/09/26 09:56:37;;;;;;;5.22;3.50;;;;;;;23.17;55.02;96126.84;5033384;28;20031;-34
2022/09/26 09:59:18;;;;;;;5.25;3.53;;;;;;;23.04;55.45;96126.69;5033562;28;20080;-34
2022/09/26 10:01:50;;;;;;;3.78;3.17;;;;;;;23.14;54.38;96122.31;5033646;28;20030;-34
2022/09/26 10:04:42;;;;;;;9.93;5.03;;;;;;;23.13;55.06;96126.34;5033279;28;20495;-34
2022/09/26 10:07:09;;;;;;;7.00;4.97;;;;;;;23.07;55.02;96120.13;5033298;28;20037;-34
2022/09/26 10:09:40;;;;;;;8.80;6.03;;;;;;;23.14;55.15;96112.00;5033477;28;20370;-34
2022/09/26 10:12:13;;;;;;;8.25;5.63;;;;;;;23.10;55.09;96108.81;5033441;28;20096;-34
2022/09/26 10:14:46;;;;;;;9.68;6.70;;;;;;;23.10;55.14;96100.50;5033072;28;20028;-34
2022/09/26 10:17:14;;;;;;;12.50;7.60;;;;;;;23.09;55.57;96084.41;5033305;28;20543;-34
2022/09/26 10:19:42;;;;;;;11.05;7.07;;;;;;;23.00;55.82;96090.28;5033048;28;20470;-34
2022/09/26 10:22:14;;;;;;;10.95;7.07;;;;;;;22.81;57.16;96098.50;5033114;28;20021;-34
2022/09/26 10:24:40;;;;;;;11.10;8.00;;;;;;;22.75;58.00;96095.00;5032961;28;20079;-34
2022/09/26 10:27:20;;;;;;;11.75;6.70;;;;;;;22.71;57.75;96097.28;5033488;28;20021;-34
2022/09/26 10:29:58;;;;;;;9.77;6.40;;;;;;;22.83;57.32;96087.66;5033092;28;20025;-34
2022/09/26 10:32:25;;;;;;;9.20;6.10;;;;;;;22.92;57.15;96095.63;5033256;28;20097;-34
2022/09/26 10:35:17;;;;;;;10.48;5.63;;;;;;;22.93;56.74;96083.31;5033038;28;20017;-34
2022/09/26 10:37:57;;;;;;;7.85;5.30;;;;;;;22.85;56.53;96096.97;5032827;28;20504;-34
2022/09/26 10:40:44;;;;;;;7.90;4.57;;;;;;;22.88;57.15;96106.22;5033036;28;20025;-34
2022/09/26 10:43:23;;;;;;;7.43;4.95;;;;;;;22.75;58.06;96104.03;5033258;28;20106;-35
2022/09/26 10:46:08;;;;;;;8.75;4.90;;;;;;;22.88;57.78;96106.97;5032901;28;20024;-34
2022/09/26 10:48:48;;;;;;;8.73;4.57;;;;;;;22.76;57.68;96113.09;5032953;28;20109;-34
2022/09/26 10:51:28;;;;;;;6.18;4.05;;;;;;;22.71;58.20;96094.53;5032877;28;20025;-34
2022/09/26 10:54:10;;;;;;;8.57;4.40;;;;;;;22.84;57.50;96100.22;5033040;28;20017;-34
2022/09/26 10:56:46;;;;;;;5.88;3.67;;;;;;;22.76;58.20;96104.81;5032913;28;20494;-34
2022/09/26 10:59:14;;;;;;;6.75;3.30;;;;;;;22.38;60.18;96096.25;5033431;28;20100;-34
2022/09/26 11:01:50;;;;;;;4.40;3.20;;;;;;;22.78;58.02;96091.22;5032908;28;20025;-34
2022/09/26 11:07:17;;;;;;;7.55;2.85;;;;;;;22.58;58.97;96087.59;5036847;28;20160;-34
2022/09/26 11:09:45;;;;;;;2.97;2.08;;;;;;;22.66;58.68;96081.50;5036557;28;20462;-34
2022/09/26 11:12:28;;;;;;;3.42;2.40;;;;;;;22.89;57.35;96096.66;5036279;28;20033;-34
2022/09/26 11:14:59;;;;;;;4.70;2.45;;;;;;;22.74;57.33;96085.22;5036261;28;20032;-34
2022/09/26 11:17:45;;;;;;;3.17;2.08;;;;;;;22.83;57.28;96076.63;5036264;28;20369;-34
2022/09/26 11:20:31;;;;;;;4.55;2.00;;;;;;;22.88;57.17;96068.25;5036130;28;20025;-34
2022/09/26 11:23:06;;;;;;;4.82;2.08;;;;;;;22.81;56.67;96065.31;5035665;28;20056;-34
2022/09/26 11:25:43;;;;;;;2.90;2.20;;;;;;;22.89;56.55;96069.00;5035984;28;20096;-34
2022/09/26 11:28:22;;;;;;;2.97;1.77;;;;;;;22.95;56.82;96044.06;5035939;28;20119;-34
2022/09/26 11:30:55;;;;;;;3.50;2.17;;;;;;;22.91;57.05;96049.88;5036258;28;20032;-34
2022/09/26 11:33:22;;;;;;;3.88;1.95;;;;;;;22.88;57.37;96056.44;5035845;28;20032;-34
2022/09/26 11:35:57;;;;;;;3.13;1.60;;;;;;;22.77;57.83;96040.72;5035665;28;20100;-34
2022/09/26 11:38:37;;;;;;;3.03;1.77;;;;;;;22.85;57.57;96038.13;5035625;28;20049;-34
2022/09/26 11:41:37;;;;;;;4.97;2.03;;;;;;;23.04;56.41;96036.19;5036069;28;20033;-34
2022/09/26 11:44:32;;;;;;;3.58;1.90;;;;;;;22.98;56.64;96054.88;5035808;28;20390;-34
2022/09/26 11:47:07;;;;;;;4.55;2.35;;;;;;;22.91;56.80;96034.03;5035559;28;20029;-34
2022/09/26 11:49:49;;;;;;;3.30;1.63;;;;;;;22.85;56.88;96027.09;5035606;28;20440;-34
2022/09/26 11:52:39;;;;;;;5.38;1.85;;;;;;;22.74;57.53;96013.34;5035637;28;20054;-34
2022/09/26 11:55:27;;;;;;;2.65;1.50;;;;;;;22.86;57.14;96009.97;5035517;28;20022;-34
2022/09/26 11:58:01;;;;;;;2.03;1.48;;;;;;;22.87;56.98;95994.13;5035541;28;20092;-34
2022/09/26 12:00:46;;;;;;;2.58;1.55;;;;;;;22.90;56.68;96004.16;5035811;28;20496;-34
2022/09/26 12:03:36;;;;;;;2.33;1.58;;;;;;;22.80;56.98;95997.47;5035204;28;20366;-34
2022/09/26 12:06:32;;;;;;;1.83;1.50;;;;;;;22.90;57.02;95993.09;5035609;28;20055;-34
2022/09/26 12:09:34;;;;;;;3.30;2.03;;;;;;;22.75;57.71;95987.91;5035349;28;20028;-34